Time;durP1;ratioP1;P1;durP2;ratioP2;P2;SDS_P1;SDS_P2;PMS_P1;PMS_P2;Temp;Humidity;BMP_temperature;BMP_pressure;BME280_temperature;BME280_humidity;BME280_pressure;Samples;Min_cycle;Max_cycle;Signal;HPM_P1;HPM_P2
2021/01/05 00:00:16;;;;;;;15.50;11.83;;;1.50;99.90;;;;;;4928946;29;20445;-68
2021/01/05 00:02:41;;;;;;;16.77;10.43;;;1.40;99.90;;;;;;4930402;29;20429;-71
2021/01/05 00:05:08;;;;;;;16.00;11.77;;;1.50;99.90;;;;;;4930222;29;20867;-68
2021/01/05 00:07:33;;;;;;;17.07;11.80;;;1.40;99.90;;;;;;4929937;29;20208;-71
2021/01/05 00:09:59;;;;;;;14.80;11.60;;;1.50;99.90;;;;;;4929981;29;20453;-70
2021/01/05 00:12:25;;;;;;;17.43;11.50;;;1.50;99.90;;;;;;4930171;29;20181;-70
2021/01/05 00:14:50;;;;;;;14.10;11.33;;;1.50;99.90;;;;;;4930404;29;20236;-71
2021/01/05 00:17:19;;;;;;;19.07;12.57;;;1.50;99.90;;;;;;4929928;29;20702;-68
2021/01/05 00:19:46;;;;;;;18.20;11.33;;;1.50;99.90;;;;;;4929528;29;20264;-71
2021/01/05 00:22:13;;;;;;;16.10;11.93;;;1.40;99.90;;;;;;4930168;29;20454;-71
2021/01/05 00:24:39;;;;;;;16.50;12.20;;;1.40;99.90;;;;;;4930211;29;20418;-70
2021/01/05 00:27:05;;;;;;;18.83;13.20;;;1.40;99.90;;;;;;4930229;29;20431;-71
2021/01/05 00:29:30;;;;;;;16.17;11.83;;;1.40;99.90;;;;;;4928911;29;20556;-71
2021/01/05 00:32:08;;;;;;;19.73;13.53;;;1.40;99.90;;;;;;4930078;29;20528;-72
2021/01/05 00:34:34;;;;;;;17.70;12.27;;;1.50;99.90;;;;;;4929839;29;20185;-71
2021/01/05 00:37:00;;;;;;;18.10;13.23;;;1.50;99.90;;;;;;4929917;29;20469;-70
2021/01/05 00:39:26;;;;;;;18.20;12.87;;;1.50;99.90;;;;;;4928805;29;20201;-71
2021/01/05 00:41:51;;;;;;;19.50;14.73;;;1.50;99.90;;;;;;4929948;29;20417;-70
2021/01/05 00:44:17;;;;;;;17.70;13.43;;;1.50;99.90;;;;;;4929714;29;20661;-71
2021/01/05 00:46:43;;;;;;;17.60;12.90;;;1.50;99.90;;;;;;4930019;29;20670;-71
2021/01/05 00:49:08;;;;;;;20.10;14.17;;;1.50;99.90;;;;;;4929271;29;20717;-71
2021/01/05 00:51:34;;;;;;;20.27;13.80;;;1.60;99.90;;;;;;4931853;29;20437;-71
2021/01/05 00:54:00;;;;;;;19.93;14.60;;;1.60;99.90;;;;;;4931961;29;20184;-71
2021/01/05 00:56:25;;;;;;;22.07;14.67;;;1.60;99.90;;;;;;4933040;29;20177;-71
2021/01/05 00:58:51;;;;;;;19.93;13.83;;;1.70;99.90;;;;;;4932477;29;20209;-71
2021/01/05 01:01:20;;;;;;;20.20;14.30;;;1.70;99.90;;;;;;4930650;29;20183;-71
2021/01/05 01:03:47;;;;;;;24.40;14.70;;;1.60;99.90;;;;;;4932910;29;20396;-71
2021/01/05 01:06:12;;;;;;;19.53;14.70;;;1.70;99.90;;;;;;4932999;29;20469;-71
2021/01/05 01:08:38;;;;;;;17.97;14.50;;;1.60;99.90;;;;;;4932503;29;20480;-71
2021/01/05 01:11:03;;;;;;;18.50;13.50;;;1.50;99.90;;;;;;4933335;29;20738;-71
2021/01/05 01:13:29;;;;;;;17.97;13.47;;;1.60;99.90;;;;;;4933197;29;20181;-71
2021/01/05 01:15:54;;;;;;;23.80;13.40;;;1.70;99.90;;;;;;4933260;29;20181;-71
2021/01/05 01:18:20;;;;;;;19.07;14.33;;;1.70;99.90;;;;;;4932323;29;20265;-71
2021/01/05 01:20:45;;;;;;;20.93;13.43;;;1.70;99.90;;;;;;4933374;29;20261;-71
2021/01/05 01:23:11;;;;;;;22.97;15.53;;;1.70;99.90;;;;;;4932850;29;20221;-71
2021/01/05 01:25:36;;;;;;;19.27;13.50;;;1.70;99.90;;;;;;4933114;29;20188;-71
2021/01/05 01:28:02;;;;;;;23.77;15.37;;;1.70;99.90;;;;;;4930787;29;20188;-71
2021/01/05 01:30:28;;;;;;;20.00;13.73;;;1.70;99.90;;;;;;4932538;29;20224;-71
2021/01/05 01:32:53;;;;;;;25.33;15.80;;;1.60;99.90;;;;;;4932765;29;20513;-71
2021/01/05 01:35:19;;;;;;;21.20;15.57;;;1.60;99.90;;;;;;4932547;29;20213;-71
2021/01/05 01:37:45;;;;;;;20.90;16.60;;;1.50;99.90;;;;;;4931890;29;20579;-70
2021/01/05 01:40:12;;;;;;;22.03;15.53;;;1.60;99.90;;;;;;4932435;29;20201;-71
2021/01/05 01:42:37;;;;;;;21.20;15.20;;;1.50;99.90;;;;;;4932565;29;20178;-70
2021/01/05 01:45:06;;;;;;;23.00;15.03;;;1.50;99.90;;;;;;4932325;29;20493;-70
2021/01/05 01:47:38;;;;;;;21.10;14.90;;;1.50;99.90;;;;;;4932316;29;20204;-71
2021/01/05 01:50:09;;;;;;;21.53;14.33;;;1.60;99.90;;;;;;4932291;29;20449;-71
2021/01/05 01:53:02;;;;;;;20.77;15.60;;;1.60;99.90;;;;;;4932428;29;20872;-71
2021/01/05 01:55:40;;;;;;;23.93;16.67;;;1.60;99.90;;;;;;4932365;29;20455;-70
2021/01/05 01:58:15;;;;;;;21.17;13.60;;;1.60;99.90;;;;;;4931778;29;20852;-71
2021/01/05 02:00:49;;;;;;;24.00;14.10;;;1.60;99.90;;;;;;4931426;29;20471;-70
2021/01/05 02:03:50;;;;;;;22.53;13.87;;;1.60;99.90;;;;;;4931248;29;20512;-70
2021/01/05 02:06:33;;;;;;;25.30;15.87;;;1.70;99.90;;;;;;4932243;29;20453;-71
2021/01/05 02:09:25;;;;;;;26.90;17.47;;;1.70;99.90;;;;;;4931282;29;20421;-70
2021/01/05 02:12:12;;;;;;;23.90;15.33;;;1.70;99.90;;;;;;4932278;29;20436;-70
2021/01/05 02:14:54;;;;;;;19.67;14.63;;;1.70;99.90;;;;;;4932251;29;20426;-70
2021/01/05 02:17:38;;;;;;;24.30;15.60;;;1.80;99.90;;;;;;4932160;29;20468;-71
2021/01/05 02:20:23;;;;;;;25.80;15.30;;;1.80;99.90;;;;;;4931549;29;20495;-71
2021/01/05 02:23:32;;;;;;;21.13;15.00;;;1.90;99.90;;;;;;4932240;29;20421;-71
2021/01/05 02:26:13;;;;;;;21.90;14.70;;;1.90;99.90;;;;;;4910284;29;20835;-71
2021/01/05 02:28:46;;;;;;;22.60;13.80;;;1.90;99.90;;;;;;4909423;29;20525;-71
2021/01/05 02:31:39;;;;;;;24.40;15.60;;;1.90;99.90;;;;;;4923487;29;20453;-71
2021/01/05 02:34:19;;;;;;;18.70;13.20;;;1.90;99.90;;;;;;4931829;29;20430;-71
2021/01/05 02:37:03;;;;;;;20.90;14.10;;;2.00;99.90;;;;;;4931661;29;20433;-71
2021/01/05 02:39:50;;;;;;;23.03;13.53;;;2.00;99.90;;;;;;4930953;29;20544;-71
2021/01/05 02:42:53;;;;;;;25.43;16.63;;;2.00;99.90;;;;;;4930207;29;20430;-70
2021/01/05 02:45:28;;;;;;;23.70;16.67;;;1.90;99.90;;;;;;4931642;29;20428;-71
2021/01/05 02:48:17;;;;;;;21.77;14.70;;;1.90;99.90;;;;;;4931000;29;20892;-71
2021/01/05 02:51:16;;;;;;;22.43;14.60;;;1.90;99.90;;;;;;4931310;29;20433;-71
2021/01/05 02:54:11;;;;;;;21.53;14.93;;;1.90;99.90;;;;;;4931318;29;20878;-71
2021/01/05 02:56:58;;;;;;;23.70;14.07;;;2.00;99.90;;;;;;4929477;29;20504;-71
2021/01/05 02:59:26;;;;;;;24.73;14.23;;;2.00;99.90;;;;;;4930461;29;20940;-71
2021/01/05 03:02:12;;;;;;;23.10;14.43;;;2.00;99.90;;;;;;4930098;29;20429;-70
2021/01/05 03:04:38;;;;;;;22.63;13.93;;;2.00;99.90;;;;;;4931514;29;20465;-71
2021/01/05 03:07:11;;;;;;;19.80;13.20;;;2.00;99.90;;;;;;4931618;29;20512;-71
2021/01/05 03:10:07;;;;;;;18.90;14.67;;;2.00;99.90;;;;;;4930434;29;20197;-71
2021/01/05 03:13:18;;;;;;;19.13;14.60;;;2.00;99.90;;;;;;4931076;29;20432;-71
2021/01/05 03:16:26;;;;;;;21.10;13.80;;;2.10;99.90;;;;;;4925454;29;20524;-70
2021/01/05 03:19:11;;;;;;;23.13;13.70;;;2.00;99.90;;;;;;4907957;29;21062;-71
2021/01/05 03:21:42;;;;;;;21.90;14.90;;;2.00;99.90;;;;;;4908922;29;20516;-71
2021/01/05 03:24:10;;;;;;;20.97;14.10;;;1.90;99.90;;;;;;4922955;29;20504;-70
2021/01/05 03:26:40;;;;;;;25.50;16.27;;;2.00;99.90;;;;;;4930796;29;20929;-71
2021/01/05 03:29:08;;;;;;;20.37;14.93;;;1.90;99.90;;;;;;4929902;29;20484;-71
2021/01/05 03:31:40;;;;;;;21.30;13.80;;;2.00;99.90;;;;;;4930618;29;20949;-71
2021/01/05 03:34:06;;;;;;;25.30;15.00;;;2.00;99.90;;;;;;4930907;29;20507;-71
2021/01/05 03:36:31;;;;;;;20.73;15.57;;;2.00;99.90;;;;;;4930842;29;20457;-71
2021/01/05 03:38:57;;;;;;;23.10;14.00;;;2.10;99.90;;;;;;4929857;29;20213;-71
2021/01/05 03:41:23;;;;;;;24.50;15.70;;;2.00;99.90;;;;;;4930351;29;20884;-70
2021/01/05 03:43:48;;;;;;;25.43;18.20;;;2.00;99.90;;;;;;4930472;29;20225;-70
2021/01/05 03:46:14;;;;;;;27.47;16.90;;;2.00;99.90;;;;;;4930405;29;20216;-70
2021/01/05 03:48:40;;;;;;;25.73;16.53;;;2.00;99.90;;;;;;4929883;29;20663;-70
2021/01/05 03:51:06;;;;;;;24.70;17.23;;;1.90;99.90;;;;;;4930494;29;20197;-70
2021/01/05 03:53:31;;;;;;;26.17;17.47;;;2.00;99.90;;;;;;4930338;29;20196;-70
2021/01/05 03:55:57;;;;;;;25.97;17.23;;;2.00;99.90;;;;;;4930629;29;20425;-71
2021/01/05 03:58:22;;;;;;;24.17;17.80;;;2.10;99.90;;;;;;4929649;29;20212;-70
2021/01/05 04:00:48;;;;;;;29.17;19.00;;;2.10;99.90;;;;;;4930653;29;20817;-70
2021/01/05 04:03:14;;;;;;;30.40;18.63;;;2.10;99.90;;;;;;4930368;29;20189;-70
2021/01/05 04:05:40;;;;;;;31.53;18.77;;;1.90;99.90;;;;;;4930479;29;20460;-70
2021/01/05 04:08:06;;;;;;;40.10;21.27;;;2.00;99.90;;;;;;4929802;29;20812;-70
2021/01/05 04:10:31;;;;;;;26.63;17.17;;;2.00;99.90;;;;;;4930120;29;20205;-70
2021/01/05 04:12:57;;;;;;;33.90;19.97;;;1.90;99.90;;;;;;4930304;29;20173;-70
2021/01/05 04:15:28;;;;;;;35.33;20.23;;;2.00;99.90;;;;;;4930089;29;20181;-70
2021/01/05 04:17:55;;;;;;;28.20;19.40;;;2.00;99.90;;;;;;4929374;29;20215;-70
2021/01/05 04:20:22;;;;;;;28.30;19.33;;;2.00;99.90;;;;;;4929876;29;20950;-70
2021/01/05 04:22:48;;;;;;;32.50;19.07;;;2.10;99.90;;;;;;4930183;29;20572;-70
2021/01/05 04:25:16;;;;;;;31.07;18.90;;;2.10;99.90;;;;;;4929792;29;20508;-70
2021/01/05 04:27:43;;;;;;;30.03;20.30;;;2.10;99.90;;;;;;4933118;29;20184;-70
2021/01/05 04:30:23;;;;;;;28.80;19.70;;;2.10;99.90;;;;;;4933462;29;20488;-70
2021/01/05 04:32:50;;;;;;;30.40;18.30;;;2.10;99.90;;;;;;4933749;29;20520;-70
2021/01/05 04:35:17;;;;;;;35.67;20.27;;;2.10;99.90;;;;;;4933755;29;20436;-71
2021/01/05 04:37:43;;;;;;;30.43;19.27;;;2.10;99.90;;;;;;4932585;29;20460;-70
2021/01/05 04:40:22;;;;;;;30.57;19.50;;;2.10;99.90;;;;;;4933794;29;20437;-70
2021/01/05 04:42:58;;;;;;;34.77;19.90;;;2.10;99.90;;;;;;4933858;29;20177;-70
2021/01/05 04:45:24;;;;;;;28.03;17.43;;;2.10;99.90;;;;;;4933942;29;20930;-70
2021/01/05 04:48:24;;;;;;;34.13;20.27;;;2.10;99.90;;;;;;4932984;29;20425;-70
2021/01/05 04:50:54;;;;;;;34.23;21.00;;;2.20;99.90;;;;;;4933729;29;20441;-70
2021/01/05 04:53:47;;;;;;;33.47;19.43;;;2.10;99.90;;;;;;4933309;29;20421;-70
2021/01/05 04:56:15;;;;;;;30.03;20.10;;;2.10;99.90;;;;;;4933501;29;20798;-70
2021/01/05 04:58:55;;;;;;;27.87;18.40;;;2.10;99.90;;;;;;4932429;29;20473;-71
2021/01/05 05:01:26;;;;;;;30.47;20.20;;;2.10;99.90;;;;;;4933339;29;20436;-70
2021/01/05 05:04:10;;;;;;;29.30;19.87;;;2.20;99.90;;;;;;4932518;29;20457;-70
2021/01/05 05:07:01;;;;;;;31.37;20.30;;;2.20;99.90;;;;;;4933436;29;20453;-70
2021/01/05 05:09:33;;;;;;;31.50;18.87;;;2.10;99.90;;;;;;4932493;29;20449;-70
2021/01/05 05:12:05;;;;;;;29.13;18.70;;;2.10;99.90;;;;;;4933594;29;20429;-70
2021/01/05 05:14:57;;;;;;;32.67;21.97;;;2.20;99.90;;;;;;4933045;29;20428;-70
2021/01/05 05:17:39;;;;;;;28.93;18.20;;;2.30;99.90;;;;;;4933070;29;20480;-70
2021/01/05 05:20:25;;;;;;;34.23;19.67;;;2.30;99.90;;;;;;4932484;29;20455;-70
2021/01/05 05:23:12;;;;;;;30.37;19.80;;;2.20;99.90;;;;;;4933041;29;20461;-70
2021/01/05 05:25:48;;;;;;;29.90;20.40;;;2.10;99.90;;;;;;4931477;28;20433;-70
2021/01/05 05:28:24;;;;;;;32.53;19.90;;;2.20;99.90;;;;;;4932514;29;20978;-71
2021/01/05 05:30:51;;;;;;;33.80;20.47;;;2.20;99.90;;;;;;4933294;29;20560;-70
2021/01/05 05:33:24;;;;;;;30.90;19.43;;;2.20;99.90;;;;;;4933262;29;20429;-70
2021/01/05 05:36:15;;;;;;;27.00;19.50;;;2.20;99.90;;;;;;4933051;29;20429;-70
2021/01/05 05:38:59;;;;;;;33.17;19.80;;;2.20;99.90;;;;;;4931029;29;20604;-70
2021/01/05 05:41:49;;;;;;;34.57;20.70;;;2.20;99.90;;;;;;4933188;29;20933;-70
2021/01/05 05:44:31;;;;;;;32.57;19.80;;;2.20;99.90;;;;;;4932823;29;20449;-70
2021/01/05 05:47:08;;;;;;;31.30;20.67;;;2.10;99.90;;;;;;4932666;29;20883;-71
2021/01/05 05:49:42;;;;;;;30.93;20.77;;;2.10;99.90;;;;;;4931776;29;20477;-70
2021/01/05 05:52:36;;;;;;;34.00;20.67;;;2.10;99.90;;;;;;4932603;29;20520;-70
2021/01/05 05:55:06;;;;;;;29.80;20.60;;;2.10;99.90;;;;;;4932409;29;20544;-70
2021/01/05 05:57:35;;;;;;;31.90;21.07;;;2.20;99.90;;;;;;4932072;29;20556;-70
2021/01/05 06:00:33;;;;;;;32.70;19.30;;;2.20;99.90;;;;;;4931901;29;20997;-70
2021/01/05 06:03:00;;;;;;;30.20;20.00;;;2.20;99.90;;;;;;4927861;29;20441;-70
2021/01/05 06:05:35;;;;;;;31.37;21.30;;;2.10;99.90;;;;;;4931695;29;20437;-71
2021/01/05 06:08:02;;;;;;;35.53;23.73;;;2.10;99.90;;;;;;4931405;29;21077;-70
2021/01/05 06:10:28;;;;;;;34.97;22.43;;;2.10;99.90;;;;;;4931845;29;21401;-70
2021/01/05 06:12:54;;;;;;;35.20;21.63;;;2.20;99.90;;;;;;4932168;29;20835;-71
2021/01/05 06:15:19;;;;;;;35.63;19.80;;;2.20;99.90;;;;;;4931672;29;20185;-70
2021/01/05 06:17:45;;;;;;;30.73;21.30;;;2.20;99.90;;;;;;4931072;29;20817;-71
2021/01/05 06:20:12;;;;;;;30.63;22.00;;;2.20;99.90;;;;;;4931577;29;20292;-71
2021/01/05 06:22:38;;;;;;;33.50;20.70;;;2.20;99.90;;;;;;4931781;29;20326;-70
2021/01/05 06:25:04;;;;;;;30.77;19.47;;;2.30;99.90;;;;;;4931863;29;20497;-71
2021/01/05 06:27:30;;;;;;;29.27;18.47;;;2.40;99.90;;;;;;4931465;29;20437;-70
2021/01/05 06:29:56;;;;;;;33.70;20.90;;;2.50;99.90;;;;;;4931395;29;20957;-70
2021/01/05 06:32:22;;;;;;;32.57;20.10;;;2.50;99.90;;;;;;4931483;29;20808;-70
2021/01/05 06:34:47;;;;;;;31.37;21.13;;;2.40;99.90;;;;;;4931785;29;20769;-71
2021/01/05 06:37:15;;;;;;;34.27;21.93;;;2.30;99.90;;;;;;4931644;29;20557;-71
2021/01/05 06:39:40;;;;;;;35.13;21.57;;;2.30;99.90;;;;;;4930899;29;20719;-70
2021/01/05 06:42:06;;;;;;;32.23;21.30;;;2.30;99.90;;;;;;4931643;29;20560;-70
2021/01/05 06:44:32;;;;;;;33.03;20.93;;;2.30;99.90;;;;;;4931535;29;20212;-70
2021/01/05 06:46:57;;;;;;;33.93;21.67;;;2.30;99.90;;;;;;4930020;29;20631;-70
2021/01/05 06:49:26;;;;;;;28.63;19.43;;;2.30;99.90;;;;;;4929854;29;20209;-70
2021/01/05 06:51:55;;;;;;;33.03;22.43;;;2.30;99.90;;;;;;4931343;29;20166;-70
2021/01/05 06:54:21;;;;;;;29.80;19.50;;;2.40;99.90;;;;;;4931096;29;20425;-70
2021/01/05 06:56:48;;;;;;;30.00;21.23;;;2.30;99.90;;;;;;4931136;29;20432;-70
2021/01/05 06:59:14;;;;;;;27.40;19.23;;;2.40;99.90;;;;;;4930211;29;20205;-70
2021/01/05 07:01:39;;;;;;;31.00;20.67;;;2.40;99.90;;;;;;4931218;29;20929;-71
2021/01/05 07:04:05;;;;;;;25.80;19.97;;;2.30;99.90;;;;;;4931363;29;20177;-70
2021/01/05 07:06:30;;;;;;;28.17;20.47;;;2.40;99.90;;;;;;4930992;29;20268;-71
2021/01/05 07:08:56;;;;;;;30.53;19.20;;;2.40;99.90;;;;;;4930325;29;20185;-70
2021/01/05 07:11:21;;;;;;;30.90;21.00;;;2.30;99.90;;;;;;4930760;29;20228;-71
2021/01/05 07:13:47;;;;;;;34.73;22.27;;;2.40;99.90;;;;;;4930933;29;20692;-70
2021/01/05 07:16:12;;;;;;;32.17;21.60;;;2.30;99.90;;;;;;4930668;29;20212;-70
2021/01/05 07:18:38;;;;;;;32.83;21.33;;;2.40;99.90;;;;;;4930164;29;20290;-71
2021/01/05 07:21:04;;;;;;;29.27;20.10;;;2.40;99.90;;;;;;4930583;29;20212;-70
2021/01/05 07:23:30;;;;;;;32.20;20.40;;;2.30;99.90;;;;;;4931117;29;20178;-70
2021/01/05 07:25:55;;;;;;;31.67;22.27;;;2.40;99.90;;;;;;4931036;29;20916;-70
2021/01/05 07:28:21;;;;;;;31.50;20.80;;;2.50;99.90;;;;;;4929844;29;20264;-70
2021/01/05 07:30:46;;;;;;;33.93;19.87;;;2.50;99.90;;;;;;4930922;29;20311;-70
2021/01/05 07:33:12;;;;;;;31.73;20.37;;;2.50;99.90;;;;;;4930891;29;20751;-70
2021/01/05 07:35:38;;;;;;;31.00;19.77;;;2.40;99.90;;;;;;4930989;29;20177;-70
2021/01/05 07:38:03;;;;;;;32.83;23.23;;;2.40;99.90;;;;;;4929950;29;20213;-70
2021/01/05 07:40:29;;;;;;;32.80;19.47;;;2.40;99.90;;;;;;4930631;29;21093;-70
2021/01/05 07:42:54;;;;;;;28.27;20.20;;;2.40;99.90;;;;;;4930410;29;20177;-70
2021/01/05 07:45:21;;;;;;;26.67;19.20;;;2.30;99.90;;;;;;4930601;29;20569;-70
2021/01/05 07:47:47;;;;;;;29.57;21.07;;;2.40;99.90;;;;;;4929556;29;20676;-70
2021/01/05 07:50:23;;;;;;;35.43;21.40;;;2.40;99.90;;;;;;4928558;28;20461;-71
2021/01/05 07:52:49;;;;;;;30.20;19.93;;;2.40;99.90;;;;;;4930151;29;20417;-70
2021/01/05 07:55:19;;;;;;;31.43;19.00;;;2.50;99.90;;;;;;4928528;29;20448;-70
2021/01/05 07:57:45;;;;;;;31.13;19.93;;;2.50;99.90;;;;;;4929531;29;20473;-70
2021/01/05 08:00:20;;;;;;;29.47;19.30;;;2.50;99.90;;;;;;4929416;29;20456;-70
2021/01/05 08:02:46;;;;;;;30.80;21.57;;;2.50;99.90;;;;;;4930206;29;20548;-70
2021/01/05 08:05:14;;;;;;;29.93;19.10;;;2.50;99.90;;;;;;4927657;29;20430;-70
2021/01/05 08:07:39;;;;;;;30.17;18.33;;;2.40;99.90;;;;;;4929468;29;20517;-70
2021/01/05 08:10:06;;;;;;;31.30;21.03;;;2.40;99.90;;;;;;4929313;29;21118;-70
2021/01/05 08:12:32;;;;;;;32.70;21.23;;;2.50;99.90;;;;;;4929376;29;20548;-70
2021/01/05 08:14:57;;;;;;;27.70;20.00;;;2.50;99.90;;;;;;4929587;29;20440;-70
2021/01/05 08:17:23;;;;;;;26.27;18.07;;;2.50;99.90;;;;;;4929498;29;20217;-70
2021/01/05 08:19:48;;;;;;;34.33;24.20;;;2.40;99.90;;;;;;4929171;29;20205;-70
2021/01/05 08:22:15;;;;;;;26.33;18.20;;;2.40;99.90;;;;;;4930211;29;20177;-70
2021/01/05 08:24:41;;;;;;;28.57;19.00;;;2.50;99.90;;;;;;4930232;29;20181;-70
2021/01/05 08:27:08;;;;;;;26.70;18.00;;;2.50;99.90;;;;;;4929995;29;20512;-70
2021/01/05 08:29:33;;;;;;;30.77;18.37;;;2.50;99.90;;;;;;4929404;29;20484;-70
2021/01/05 08:31:59;;;;;;;26.60;18.30;;;2.50;99.90;;;;;;4930447;29;20787;-71
2021/01/05 08:34:24;;;;;;;30.17;17.97;;;2.50;99.90;;;;;;4930020;29;20186;-70
2021/01/05 08:36:50;;;;;;;23.30;17.30;;;2.50;99.90;;;;;;4930072;29;20221;-70
2021/01/05 08:39:15;;;;;;;28.93;19.83;;;2.50;99.90;;;;;;4929088;29;20205;-70
2021/01/05 08:41:42;;;;;;;23.20;16.57;;;2.50;99.90;;;;;;4930048;29;20181;-70
2021/01/05 08:44:09;;;;;;;28.60;17.90;;;2.60;99.90;;;;;;4929724;29;20186;-70
2021/01/05 08:46:34;;;;;;;21.50;16.67;;;2.60;99.90;;;;;;4930083;29;20421;-70
2021/01/05 08:49:00;;;;;;;23.07;16.67;;;2.70;99.90;;;;;;4928948;29;20508;-70
2021/01/05 08:51:33;;;;;;;23.77;17.80;;;2.60;99.90;;;;;;4930276;29;20209;-69
2021/01/05 08:53:58;;;;;;;22.97;17.77;;;2.60;99.90;;;;;;4930021;29;20190;-70
2021/01/05 08:56:27;;;;;;;27.63;18.00;;;2.60;99.90;;;;;;4929610;29;20949;-70
2021/01/05 08:58:53;;;;;;;19.33;15.60;;;2.60;99.90;;;;;;4927558;29;20281;-70
2021/01/05 09:01:19;;;;;;;22.63;17.23;;;2.60;99.90;;;;;;4927874;29;20425;-70
2021/01/05 09:03:45;;;;;;;23.90;18.00;;;2.50;99.90;;;;;;4929493;29;20433;-70
2021/01/05 09:06:11;;;;;;;22.83;17.47;;;2.50;99.90;;;;;;4929723;29;20512;-70
2021/01/05 09:08:38;;;;;;;22.27;17.40;;;2.60;99.90;;;;;;4929109;29;20480;-70
2021/01/05 09:11:15;;;;;;;27.90;17.17;;;2.60;99.90;;;;;;4929361;29;20962;-70
2021/01/05 09:13:41;;;;;;;27.70;17.80;;;2.70;99.90;;;;;;4933065;29;20756;-70
2021/01/05 09:16:06;;;;;;;20.23;16.63;;;2.70;99.90;;;;;;4933509;29;20429;-70
2021/01/05 09:18:33;;;;;;;22.87;16.17;;;2.70;99.90;;;;;;4932342;29;20304;-70
2021/01/05 09:20:59;;;;;;;22.57;15.87;;;2.70;99.90;;;;;;4933214;29;20209;-70
2021/01/05 09:23:24;;;;;;;22.13;16.57;;;2.80;99.90;;;;;;4931488;29;20433;-70
2021/01/05 09:25:55;;;;;;;20.97;15.30;;;2.80;99.90;;;;;;4933369;29;20178;-70
2021/01/05 09:28:24;;;;;;;21.63;15.47;;;2.60;99.90;;;;;;4932149;29;20182;-70
2021/01/05 09:30:50;;;;;;;22.20;15.57;;;2.70;99.90;;;;;;4932650;29;20500;-70
2021/01/05 09:33:18;;;;;;;20.73;14.70;;;2.70;99.90;;;;;;4932458;29;20889;-70
2021/01/05 09:35:43;;;;;;;21.63;15.30;;;2.70;99.90;;;;;;4932782;29;20437;-71
2021/01/05 09:38:09;;;;;;;20.33;15.67;;;2.70;99.90;;;;;;4932018;29;20528;-70
2021/01/05 09:40:40;;;;;;;23.80;15.77;;;2.80;99.90;;;;;;4932593;29;20276;-70
2021/01/05 09:43:07;;;;;;;23.70;16.10;;;2.80;99.90;;;;;;4931490;29;20238;-70
2021/01/05 09:45:32;;;;;;;23.10;16.60;;;2.80;99.90;;;;;;4932282;29;20923;-70
2021/01/05 09:48:03;;;;;;;27.27;17.87;;;2.80;99.90;;;;;;4931869;29;20439;-69
2021/01/05 09:50:29;;;;;;;22.53;16.10;;;2.80;99.90;;;;;;4932136;29;20212;-69
2021/01/05 09:52:54;;;;;;;25.40;17.13;;;2.80;99.90;;;;;;4932528;29;20891;-70
2021/01/05 09:55:20;;;;;;;23.67;17.07;;;2.80;99.90;;;;;;4932064;29;20182;-70
2021/01/05 09:57:47;;;;;;;28.57;18.43;;;2.90;99.90;;;;;;4931561;29;20606;-70
2021/01/05 10:00:13;;;;;;;24.57;16.90;;;2.80;99.90;;;;;;4930671;29;20202;-71
2021/01/05 10:02:38;;;;;;;21.63;16.73;;;2.90;99.90;;;;;;4932222;29;20793;-70
2021/01/05 10:05:05;;;;;;;23.13;18.10;;;2.80;99.90;;;;;;4932288;29;20516;-70
2021/01/05 10:07:30;;;;;;;25.07;18.00;;;2.90;99.90;;;;;;4931909;29;20186;-68
2021/01/05 10:09:56;;;;;;;24.70;17.43;;;2.90;99.90;;;;;;4931322;29;20508;-69
2021/01/05 10:12:21;;;;;;;20.73;16.40;;;2.90;99.90;;;;;;4931824;29;20332;-69
2021/01/05 10:14:47;;;;;;;22.60;17.40;;;2.90;99.90;;;;;;4932218;29;20547;-70
2021/01/05 10:17:12;;;;;;;24.53;16.90;;;2.90;99.90;;;;;;4931654;29;20216;-68
2021/01/05 10:19:38;;;;;;;22.90;16.10;;;3.00;99.90;;;;;;4930760;29;20539;-68
2021/01/05 10:22:04;;;;;;;27.10;17.57;;;3.00;99.90;;;;;;4931921;29;20199;-69
2021/01/05 10:24:30;;;;;;;22.00;17.47;;;3.00;99.90;;;;;;4930516;29;20178;-68
2021/01/05 10:26:56;;;;;;;21.90;18.00;;;3.10;99.90;;;;;;4931822;29;20425;-69
2021/01/05 10:29:23;;;;;;;25.73;17.53;;;3.10;99.90;;;;;;4930855;29;20422;-69
2021/01/05 10:31:49;;;;;;;24.70;17.33;;;3.10;99.90;;;;;;4931739;29;20426;-68
2021/01/05 10:34:18;;;;;;;24.80;17.07;;;3.10;99.90;;;;;;4931597;29;20431;-69
2021/01/05 10:36:44;;;;;;;21.60;16.10;;;3.10;99.90;;;;;;4931973;29;20827;-68
2021/01/05 10:39:13;;;;;;;23.97;18.17;;;3.20;99.90;;;;;;4930626;29;20531;-69
2021/01/05 10:41:42;;;;;;;22.23;16.90;;;3.20;99.90;;;;;;4931634;29;20823;-68
2021/01/05 10:44:09;;;;;;;23.03;17.67;;;3.20;99.90;;;;;;4931723;29;20430;-67
2021/01/05 10:46:34;;;;;;;22.53;17.53;;;3.10;99.90;;;;;;4931208;29;20421;-69
2021/01/05 10:49:00;;;;;;;27.40;18.43;;;3.10;99.90;;;;;;4930856;29;21165;-68
2021/01/05 10:51:26;;;;;;;26.83;18.30;;;3.10;99.90;;;;;;4931270;29;20264;-68
2021/01/05 10:53:52;;;;;;;24.00;17.00;;;3.20;99.90;;;;;;4931348;29;20637;-68
2021/01/05 10:56:18;;;;;;;23.83;17.67;;;3.20;99.90;;;;;;4931228;29;20484;-68
2021/01/05 10:58:45;;;;;;;27.40;19.50;;;3.30;99.90;;;;;;4930558;29;20209;-69
2021/01/05 11:01:10;;;;;;;25.80;17.70;;;3.40;99.90;;;;;;4929997;29;20421;-69
2021/01/05 11:03:36;;;;;;;28.43;20.07;;;3.30;99.90;;;;;;4929685;29;20432;-69
2021/01/05 11:06:06;;;;;;;28.10;18.43;;;3.30;99.90;;;;;;4931171;29;20174;-69
2021/01/05 11:08:31;;;;;;;24.63;18.30;;;3.30;99.90;;;;;;4930146;29;20241;-69
2021/01/05 11:10:57;;;;;;;28.17;18.40;;;3.20;99.90;;;;;;4931159;29;20869;-69
2021/01/05 11:13:23;;;;;;;22.50;17.87;;;3.20;99.90;;;;;;4931139;29;20178;-69
2021/01/05 11:15:49;;;;;;;26.40;16.80;;;3.20;99.90;;;;;;4930964;29;20582;-69
2021/01/05 11:18:15;;;;;;;25.37;17.57;;;3.20;99.90;;;;;;4929793;29;20460;-69
2021/01/05 11:20:41;;;;;;;23.27;16.63;;;3.40;99.90;;;;;;4930871;29;20563;-69
2021/01/05 11:23:08;;;;;;;27.60;19.83;;;3.40;99.90;;;;;;4929276;29;20429;-69
2021/01/05 11:25:35;;;;;;;25.50;16.27;;;3.40;99.90;;;;;;4930424;29;20935;-68
2021/01/05 11:28:04;;;;;;;28.20;19.73;;;3.40;99.90;;;;;;4930083;29;20426;-69
2021/01/05 11:30:30;;;;;;;23.87;17.03;;;3.50;99.90;;;;;;4931004;29;20488;-69
2021/01/05 11:32:55;;;;;;;28.87;20.63;;;3.50;99.90;;;;;;4930736;29;20828;-69
2021/01/05 11:35:21;;;;;;;27.07;18.57;;;3.60;99.90;;;;;;4930285;29;20198;-70
2021/01/05 11:37:47;;;;;;;26.90;17.97;;;3.50;99.90;;;;;;4929535;29;20766;-70
2021/01/05 11:40:14;;;;;;;29.77;20.73;;;3.40;99.90;;;;;;4930059;29;20221;-69
2021/01/05 11:42:40;;;;;;;26.00;18.23;;;3.20;99.90;;;;;;4930517;29;20186;-70
2021/01/05 11:45:06;;;;;;;25.80;16.43;;;3.10;99.90;;;;;;4930518;29;21343;-69
2021/01/05 11:47:32;;;;;;;29.70;18.43;;;3.10;99.90;;;;;;4928611;29;20248;-69
2021/01/05 11:49:58;;;;;;;26.43;18.30;;;3.10;99.90;;;;;;4930035;29;20445;-69
2021/01/05 11:52:24;;;;;;;28.20;20.50;;;3.20;99.90;;;;;;4930554;29;20651;-71
2021/01/05 11:54:50;;;;;;;27.40;19.13;;;3.20;99.90;;;;;;4930586;29;20169;-68
2021/01/05 11:57:16;;;;;;;32.00;20.67;;;3.20;99.90;;;;;;4930211;29;20516;-69
2021/01/05 11:59:41;;;;;;;31.23;19.00;;;3.20;99.90;;;;;;4929647;29;20193;-69
2021/01/05 12:02:07;;;;;;;26.37;18.87;;;3.30;99.90;;;;;;4930067;29;20924;-68
2021/01/05 12:04:32;;;;;;;27.07;19.40;;;3.20;99.90;;;;;;4930417;29;20256;-68
2021/01/05 12:06:59;;;;;;;26.23;17.73;;;3.20;99.90;;;;;;4930659;29;20170;-69
2021/01/05 12:09:26;;;;;;;27.33;19.20;;;3.20;99.90;;;;;;4929360;29;20607;-69
2021/01/05 12:12:00;;;;;;;24.43;17.73;;;3.20;99.90;;;;;;4930189;29;20487;-69
2021/01/05 12:14:26;;;;;;;30.67;19.10;;;3.10;99.90;;;;;;4930095;29;20449;-68
2021/01/05 12:16:52;;;;;;;27.80;19.20;;;3.10;99.90;;;;;;4930301;29;20429;-68
2021/01/05 12:19:27;;;;;;;26.03;18.17;;;3.10;99.90;;;;;;4929327;29;20213;-68
2021/01/05 12:21:58;;;;;;;24.43;17.13;;;3.10;99.90;;;;;;4930194;29;20473;-68
2021/01/05 12:24:26;;;;;;;27.87;18.67;;;3.20;99.90;;;;;;4930085;29;20430;-69
2021/01/05 12:26:55;;;;;;;28.27;18.37;;;3.10;99.90;;;;;;4928860;29;20468;-69
2021/01/05 12:29:23;;;;;;;29.80;20.30;;;3.20;99.90;;;;;;4928949;29;20844;-69
2021/01/05 12:31:58;;;;;;;28.37;18.90;;;3.30;99.90;;;;;;4930043;29;20421;-70
2021/01/05 12:34:26;;;;;;;28.13;18.90;;;3.30;99.90;;;;;;4930208;29;20933;-68
2021/01/05 12:36:52;;;;;;;29.10;19.93;;;3.10;99.90;;;;;;4930060;29;20504;-69
2021/01/05 12:39:24;;;;;;;31.23;19.43;;;3.10;99.90;;;;;;4929501;29;21127;-68
2021/01/05 12:41:50;;;;;;;26.30;17.10;;;3.10;99.90;;;;;;4929599;29;20452;-69
2021/01/05 12:44:22;;;;;;;25.17;17.93;;;3.10;99.90;;;;;;4929837;29;20946;-69
2021/01/05 12:46:49;;;;;;;31.07;21.60;;;3.00;99.90;;;;;;4930587;29;20421;-68
2021/01/05 12:49:15;;;;;;;24.00;17.13;;;3.10;99.90;;;;;;4933035;29;20965;-69